sensor_id;sensor_type;location;lat;lon;timestamp;pressure;altitude;pressure_sealevel;temperature;humidity
54806;BME280;62866;55.776;37.496;2024-03-02T00:01:09;101108.06;;;3.63;77.85
54806;BME280;62866;55.776;37.496;2024-03-02T00:03:36;101107.31;;;3.61;77.91
54806;BME280;62866;55.776;37.496;2024-03-02T00:06:02;101097.94;;;3.57;78.34
54806;BME280;62866;55.776;37.496;2024-03-02T00:08:28;101107.84;;;3.66;78.09
54806;BME280;62866;55.776;37.496;2024-03-02T00:10:59;101107.94;;;3.64;78.13
54806;BME280;62866;55.776;37.496;2024-03-02T00:13:24;101110.59;;;3.64;78.48
54806;BME280;62866;55.776;37.496;2024-03-02T00:15:54;101107.22;;;3.62;78.25
54806;BME280;62866;55.776;37.496;2024-03-02T00:18:30;101093.50;;;3.57;78.44
54806;BME280;62866;55.776;37.496;2024-03-02T00:20:57;101100.47;;;3.58;78.36
54806;BME280;62866;55.776;37.496;2024-03-02T00:23:24;101103.22;;;3.57;78.34
54806;BME280;62866;55.776;37.496;2024-03-02T00:25:53;101098.03;;;3.55;78.82
54806;BME280;62866;55.776;37.496;2024-03-02T00:28:34;101102.47;;;3.55;78.30
54806;BME280;62866;55.776;37.496;2024-03-02T00:31:09;101097.28;;;3.53;78.90
54806;BME280;62866;55.776;37.496;2024-03-02T00:36:06;101112.44;;;3.51;78.57
54806;BME280;62866;55.776;37.496;2024-03-02T00:38:34;101103.31;;;3.55;78.17
54806;BME280;62866;55.776;37.496;2024-03-02T00:41:04;101102.81;;;3.50;78.51
54806;BME280;62866;55.776;37.496;2024-03-02T00:43:42;101101.19;;;3.60;78.62
54806;BME280;62866;55.776;37.496;2024-03-02T00:46:10;101100.00;;;3.64;78.59
54806;BME280;62866;55.776;37.496;2024-03-02T00:48:36;101100.66;;;3.68;78.77
54806;BME280;62866;55.776;37.496;2024-03-02T00:51:03;101097.75;;;3.71;78.57
54806;BME280;62866;55.776;37.496;2024-03-02T00:53:30;101104.63;;;3.73;78.36
54806;BME280;62866;55.776;37.496;2024-03-02T00:55:56;101111.72;;;3.73;78.33
54806;BME280;62866;55.776;37.496;2024-03-02T00:58:22;101111.72;;;3.73;77.62
54806;BME280;62866;55.776;37.496;2024-03-02T01:00:47;101112.34;;;3.76;78.42
54806;BME280;62866;55.776;37.496;2024-03-02T01:03:13;101104.53;;;3.75;78.60
54806;BME280;62866;55.776;37.496;2024-03-02T01:05:42;101113.34;;;3.87;77.96
54806;BME280;62866;55.776;37.496;2024-03-02T01:08:09;101118.88;;;3.84;78.05
54806;BME280;62866;55.776;37.496;2024-03-02T01:10:34;101125.50;;;3.89;78.15
54806;BME280;62866;55.776;37.496;2024-03-02T01:13:00;101120.97;;;3.91;77.83
54806;BME280;62866;55.776;37.496;2024-03-02T01:15:25;101125.63;;;3.88;77.73
54806;BME280;62866;55.776;37.496;2024-03-02T01:17:51;101093.41;;;3.70;77.19
54806;BME280;62866;55.776;37.496;2024-03-02T01:20:16;101132.72;;;3.87;77.29
54806;BME280;62866;55.776;37.496;2024-03-02T01:22:42;101129.47;;;3.84;77.50
54806;BME280;62866;55.776;37.496;2024-03-02T01:25:08;101124.50;;;3.79;77.78
54806;BME280;62866;55.776;37.496;2024-03-02T01:27:34;101127.53;;;3.86;77.73
54806;BME280;62866;55.776;37.496;2024-03-02T01:29:59;101127.41;;;3.87;78.12
54806;BME280;62866;55.776;37.496;2024-03-02T01:32:25;101123.31;;;3.83;77.45
54806;BME280;62866;55.776;37.496;2024-03-02T01:34:51;101120.44;;;3.86;77.51
54806;BME280;62866;55.776;37.496;2024-03-02T01:37:16;101117.69;;;3.88;77.72
54806;BME280;62866;55.776;37.496;2024-03-02T01:39:41;101118.31;;;3.91;77.44
54806;BME280;62866;55.776;37.496;2024-03-02T01:42:07;101117.75;;;3.99;77.60
54806;BME280;62866;55.776;37.496;2024-03-02T01:44:32;101119.91;;;4.05;77.40
54806;BME280;62866;55.776;37.496;2024-03-02T01:46:58;101126.91;;;4.06;77.04
54806;BME280;62866;55.776;37.496;2024-03-02T01:49:24;101122.56;;;4.05;76.56
54806;BME280;62866;55.776;37.496;2024-03-02T01:51:49;101121.13;;;4.01;76.57
54806;BME280;62866;55.776;37.496;2024-03-02T01:54:15;101112.28;;;3.89;76.13
54806;BME280;62866;55.776;37.496;2024-03-02T01:56:40;101116.63;;;3.90;77.07
54806;BME280;62866;55.776;37.496;2024-03-02T01:59:06;101119.16;;;3.92;76.95
54806;BME280;62866;55.776;37.496;2024-03-02T02:01:31;101119.06;;;3.93;77.17
54806;BME280;62866;55.776;37.496;2024-03-02T02:03:57;101126.63;;;3.98;77.05
54806;BME280;62866;55.776;37.496;2024-03-02T02:06:23;101115.09;;;3.99;76.80
54806;BME280;62866;55.776;37.496;2024-03-02T02:08:48;101122.91;;;4.00;76.31
54806;BME280;62866;55.776;37.496;2024-03-02T02:11:17;101127.59;;;3.97;76.36
54806;BME280;62866;55.776;37.496;2024-03-02T02:13:43;101122.28;;;3.97;76.01
54806;BME280;62866;55.776;37.496;2024-03-02T02:16:08;101128.44;;;3.97;75.54
54806;BME280;62866;55.776;37.496;2024-03-02T02:18:34;101126.00;;;3.94;76.00
54806;BME280;62866;55.776;37.496;2024-03-02T02:21:03;101125.63;;;3.88;76.24
54806;BME280;62866;55.776;37.496;2024-03-02T02:23:28;101127.09;;;3.92;76.29
54806;BME280;62866;55.776;37.496;2024-03-02T02:25:54;101126.13;;;3.93;75.60
54806;BME280;62866;55.776;37.496;2024-03-02T02:28:20;101129.63;;;3.93;76.07
54806;BME280;62866;55.776;37.496;2024-03-02T02:30:45;101133.09;;;3.94;76.20
54806;BME280;62866;55.776;37.496;2024-03-02T02:33:11;101126.00;;;3.94;76.33
54806;BME280;62866;55.776;37.496;2024-03-02T02:35:36;101134.69;;;3.96;75.76
54806;BME280;62866;55.776;37.496;2024-03-02T02:38:02;101141.78;;;3.96;75.76
54806;BME280;62866;55.776;37.496;2024-03-02T02:40:28;101142.88;;;3.93;76.13
54806;BME280;62866;55.776;37.496;2024-03-02T02:42:57;101139.59;;;3.90;76.40
54806;BME280;62866;55.776;37.496;2024-03-02T02:45:24;101136.72;;;3.93;76.21
54806;BME280;62866;55.776;37.496;2024-03-02T02:47:50;101136.19;;;3.88;76.07
54806;BME280;62866;55.776;37.496;2024-03-02T02:50:15;101134.41;;;3.88;76.31
54806;BME280;62866;55.776;37.496;2024-03-02T02:52:42;101135.75;;;3.94;76.64
54806;BME280;62866;55.776;37.496;2024-03-02T02:55:10;101131.19;;;3.96;76.54
54806;BME280;62866;55.776;37.496;2024-03-02T02:57:37;101139.97;;;3.96;76.57
54806;BME280;62866;55.776;37.496;2024-03-02T03:00:06;101135.88;;;3.92;76.79
54806;BME280;62866;55.776;37.496;2024-03-02T03:02:36;101127.59;;;3.97;76.21
54806;BME280;62866;55.776;37.496;2024-03-02T03:05:02;101133.63;;;3.99;76.11
54806;BME280;62866;55.776;37.496;2024-03-02T03:07:27;101133.38;;;4.02;76.08
54806;BME280;62866;55.776;37.496;2024-03-02T03:09:53;101139.66;;;4.01;75.54
54806;BME280;62866;55.776;37.496;2024-03-02T03:12:18;101140.06;;;3.95;75.74
54806;BME280;62866;55.776;37.496;2024-03-02T03:14:44;101138.38;;;3.94;75.85
54806;BME280;62866;55.776;37.496;2024-03-02T03:17:09;101145.63;;;3.92;76.46
54806;BME280;62866;55.776;37.496;2024-03-02T03:19:35;101151.63;;;3.94;76.01
54806;BME280;62866;55.776;37.496;2024-03-02T03:22:01;101150.16;;;3.90;75.96
54806;BME280;62866;55.776;37.496;2024-03-02T03:24:26;101141.31;;;3.78;76.53
54806;BME280;62866;55.776;37.496;2024-03-02T03:26:52;101148.66;;;3.74;76.15
54806;BME280;62866;55.776;37.496;2024-03-02T03:29:17;101139.63;;;3.77;76.52
54806;BME280;62866;55.776;37.496;2024-03-02T03:31:43;101137.88;;;3.89;76.73
54806;BME280;62866;55.776;37.496;2024-03-02T03:34:08;101142.00;;;3.93;76.13
54806;BME280;62866;55.776;37.496;2024-03-02T03:36:34;101142.44;;;3.87;76.00
54806;BME280;62866;55.776;37.496;2024-03-02T03:38:59;101141.22;;;3.79;75.87
54806;BME280;62866;55.776;37.496;2024-03-02T03:41:27;101136.16;;;3.76;75.57
54806;BME280;62866;55.776;37.496;2024-03-02T03:43:52;101139.13;;;3.72;75.83
54806;BME280;62866;55.776;37.496;2024-03-02T03:46:18;101117.34;;;3.68;75.92
54806;BME280;62866;55.776;37.496;2024-03-02T03:48:43;101127.50;;;3.74;75.84
54806;BME280;62866;55.776;37.496;2024-03-02T03:51:09;101126.28;;;3.78;75.71
54806;BME280;62866;55.776;37.496;2024-03-02T03:53:35;101132.44;;;3.79;75.79
54806;BME280;62866;55.776;37.496;2024-03-02T03:56:00;101124.84;;;3.74;75.11
54806;BME280;62866;55.776;37.496;2024-03-02T03:58:25;101132.88;;;3.73;75.00
54806;BME280;62866;55.776;37.496;2024-03-02T04:00:51;101135.03;;;3.68;75.43
54806;BME280;62866;55.776;37.496;2024-03-02T04:03:17;101124.66;;;3.65;75.63
54806;BME280;62866;55.776;37.496;2024-03-02T04:05:42;101113.13;;;3.66;75.50
54806;BME280;62866;55.776;37.496;2024-03-02T04:08:08;101110.03;;;3.72;75.67
54806;BME280;62866;55.776;37.496;2024-03-02T04:10:33;101123.03;;;3.75;75.18
54806;BME280;62866;55.776;37.496;2024-03-02T04:12:59;101121.34;;;3.74;75.50
54806;BME280;62866;55.776;37.496;2024-03-02T04:15:25;101135.06;;;3.79;75.20
54806;BME280;62866;55.776;37.496;2024-03-02T04:17:50;101134.34;;;3.77;75.02
54806;BME280;62866;55.776;37.496;2024-03-02T04:20:16;101141.78;;;3.72;75.12
54806;BME280;62866;55.776;37.496;2024-03-02T04:22:41;101139.59;;;3.66;75.16
54806;BME280;62866;55.776;37.496;2024-03-02T04:25:07;101128.47;;;3.61;75.28
54806;BME280;62866;55.776;37.496;2024-03-02T04:27:33;101120.50;;;3.50;75.03
54806;BME280;62866;55.776;37.496;2024-03-02T04:29:58;101133.59;;;3.51;75.43
54806;BME280;62866;55.776;37.496;2024-03-02T04:32:28;101128.75;;;3.45;75.77
54806;BME280;62866;55.776;37.496;2024-03-02T04:34:54;101127.69;;;3.35;75.69
54806;BME280;62866;55.776;37.496;2024-03-02T04:37:20;101139.88;;;3.37;75.97
54806;BME280;62866;55.776;37.496;2024-03-02T04:39:45;101134.81;;;3.34;75.62
54806;BME280;62866;55.776;37.496;2024-03-02T04:42:11;101143.47;;;3.36;75.61
54806;BME280;62866;55.776;37.496;2024-03-02T04:44:36;101136.47;;;3.35;75.57
54806;BME280;62866;55.776;37.496;2024-03-02T04:47:04;101138.28;;;3.35;76.22
54806;BME280;62866;55.776;37.496;2024-03-02T04:49:29;101142.97;;;3.31;75.90
54806;BME280;62866;55.776;37.496;2024-03-02T04:51:55;101129.44;;;3.23;75.93
54806;BME280;62866;55.776;37.496;2024-03-02T04:54:22;101134.63;;;3.25;76.58
54806;BME280;62866;55.776;37.496;2024-03-02T04:56:48;101136.41;;;3.24;76.27
54806;BME280;62866;55.776;37.496;2024-03-02T04:59:17;101144.44;;;3.23;76.56
54806;BME280;62866;55.776;37.496;2024-03-02T05:01:46;101134.31;;;3.17;76.59
54806;BME280;62866;55.776;37.496;2024-03-02T05:04:12;101138.41;;;3.21;76.01
54806;BME280;62866;55.776;37.496;2024-03-02T05:06:38;101145.91;;;3.27;75.92
54806;BME280;62866;55.776;37.496;2024-03-02T05:09:08;101115.81;;;3.17;76.55
54806;BME280;62866;55.776;37.496;2024-03-02T05:11:34;101126.25;;;3.31;76.20
54806;BME280;62866;55.776;37.496;2024-03-02T05:14:02;101118.13;;;3.21;76.26
54806;BME280;62866;55.776;37.496;2024-03-02T05:16:27;101132.47;;;3.30;76.62
54806;BME280;62866;55.776;37.496;2024-03-02T05:18:53;101112.94;;;3.20;76.41
54806;BME280;62866;55.776;37.496;2024-03-02T05:21:18;101130.91;;;3.27;76.40
54806;BME280;62866;55.776;37.496;2024-03-02T05:23:44;101135.75;;;3.33;76.40
54806;BME280;62866;55.776;37.496;2024-03-02T05:26:10;101126.53;;;3.39;76.32
54806;BME280;62866;55.776;37.496;2024-03-02T05:28:38;101136.34;;;3.50;76.54
54806;BME280;62866;55.776;37.496;2024-03-02T05:31:09;101117.44;;;3.43;75.96
54806;BME280;62866;55.776;37.496;2024-03-02T05:33:37;101133.56;;;3.64;76.08
54806;BME280;62866;55.776;37.496;2024-03-02T05:36:03;101133.63;;;3.75;76.32
54806;BME280;62866;55.776;37.496;2024-03-02T05:38:29;101131.19;;;3.72;75.89
54806;BME280;62866;55.776;37.496;2024-03-02T05:40:55;101127.03;;;3.80;75.58
54806;BME280;62866;55.776;37.496;2024-03-02T05:43:20;101139.22;;;3.70;75.45
54806;BME280;62866;55.776;37.496;2024-03-02T05:45:46;101149.03;;;3.81;75.79
54806;BME280;62866;55.776;37.496;2024-03-02T05:48:11;101146.56;;;3.67;75.58
54806;BME280;62866;55.776;37.496;2024-03-02T05:50:37;101147.56;;;3.77;75.30
54806;BME280;62866;55.776;37.496;2024-03-02T05:53:02;101145.25;;;3.72;75.27
54806;BME280;62866;55.776;37.496;2024-03-02T05:55:28;101144.22;;;3.75;75.71
54806;BME280;62866;55.776;37.496;2024-03-02T05:57:53;101154.22;;;3.83;75.41
54806;BME280;62866;55.776;37.496;2024-03-02T06:00:31;101139.63;;;3.77;74.94
54806;BME280;62866;55.776;37.496;2024-03-02T06:02:57;101140.03;;;3.84;75.26
54806;BME280;62866;55.776;37.496;2024-03-02T06:05:23;101144.66;;;3.93;74.88
54806;BME280;62866;55.776;37.496;2024-03-02T06:07:48;101158.50;;;3.96;74.60
54806;BME280;62866;55.776;37.496;2024-03-02T06:10:14;101149.50;;;3.99;74.45
54806;BME280;62866;55.776;37.496;2024-03-02T06:12:40;101148.91;;;4.06;73.97
54806;BME280;62866;55.776;37.496;2024-03-02T06:15:06;101151.56;;;4.06;73.76
54806;BME280;62866;55.776;37.496;2024-03-02T06:17:32;101138.84;;;3.88;74.38
54806;BME280;62866;55.776;37.496;2024-03-02T06:19:57;101150.66;;;3.95;74.61
54806;BME280;62866;55.776;37.496;2024-03-02T06:22:23;101149.59;;;3.97;73.58
54806;BME280;62866;55.776;37.496;2024-03-02T06:24:50;101151.56;;;4.06;73.98
54806;BME280;62866;55.776;37.496;2024-03-02T06:27:16;101157.13;;;4.14;73.74
54806;BME280;62866;55.776;37.496;2024-03-02T06:29:42;101157.06;;;4.27;73.84
54806;BME280;62866;55.776;37.496;2024-03-02T06:32:07;101154.19;;;4.30;73.61
54806;BME280;62866;55.776;37.496;2024-03-02T06:34:33;101143.97;;;4.26;72.61
54806;BME280;62866;55.776;37.496;2024-03-02T06:36:58;101156.09;;;4.28;73.15
54806;BME280;62866;55.776;37.496;2024-03-02T06:39:24;101157.56;;;4.32;73.02
54806;BME280;62866;55.776;37.496;2024-03-02T06:41:51;101152.66;;;4.39;72.56
54806;BME280;62866;55.776;37.496;2024-03-02T06:44:17;101152.38;;;4.31;72.21
54806;BME280;62866;55.776;37.496;2024-03-02T06:46:42;101160.25;;;4.08;72.98
54806;BME280;62866;55.776;37.496;2024-03-02T06:49:08;101157.75;;;4.18;72.87
54806;BME280;62866;55.776;37.496;2024-03-02T06:51:35;101157.31;;;4.35;72.75
54806;BME280;62866;55.776;37.496;2024-03-02T06:54:01;101149.38;;;4.35;72.50
54806;BME280;62866;55.776;37.496;2024-03-02T06:56:26;101148.94;;;4.41;72.47
54806;BME280;62866;55.776;37.496;2024-03-02T06:58:51;101153.69;;;4.60;72.11
54806;BME280;62866;55.776;37.496;2024-03-02T07:01:17;101151.78;;;4.73;71.79
54806;BME280;62866;55.776;37.496;2024-03-02T07:03:42;101158.75;;;4.74;70.91
54806;BME280;62866;55.776;37.496;2024-03-02T07:06:09;101156.72;;;4.78;71.65
54806;BME280;62866;55.776;37.496;2024-03-02T07:08:34;101159.50;;;4.76;70.94
54806;BME280;62866;55.776;37.496;2024-03-02T07:11:00;101161.91;;;4.68;71.17
54806;BME280;62866;55.776;37.496;2024-03-02T07:13:26;101165.84;;;4.63;71.27
54806;BME280;62866;55.776;37.496;2024-03-02T07:15:52;101168.97;;;4.56;71.50
54806;BME280;62866;55.776;37.496;2024-03-02T07:18:36;101161.75;;;4.58;71.31
54806;BME280;62866;55.776;37.496;2024-03-02T07:21:10;101159.81;;;4.61;71.46
54806;BME280;62866;55.776;37.496;2024-03-02T07:23:36;101159.69;;;4.62;71.07
54806;BME280;62866;55.776;37.496;2024-03-02T07:26:01;101162.59;;;4.59;71.54
54806;BME280;62866;55.776;37.496;2024-03-02T07:28:27;101161.81;;;4.46;71.74
54806;BME280;62866;55.776;37.496;2024-03-02T07:30:59;101173.03;;;4.49;71.78
54806;BME280;62866;55.776;37.496;2024-03-02T07:33:25;101169.91;;;4.55;71.63
54806;BME280;62866;55.776;37.496;2024-03-02T07:35:51;101168.84;;;4.69;71.92
54806;BME280;62866;55.776;37.496;2024-03-02T07:38:17;101159.50;;;4.76;71.07
54806;BME280;62866;55.776;37.496;2024-03-02T07:40:42;101159.88;;;4.83;70.66
54806;BME280;62866;55.776;37.496;2024-03-02T07:43:08;101154.44;;;4.84;70.93
54806;BME280;62866;55.776;37.496;2024-03-02T07:45:34;101151.78;;;4.95;70.68
54806;BME280;62866;55.776;37.496;2024-03-02T07:48:01;101143.13;;;5.16;70.71
54806;BME280;62866;55.776;37.496;2024-03-02T07:50:28;101148.81;;;5.33;70.57
54806;BME280;62866;55.776;37.496;2024-03-02T07:52:54;101144.06;;;5.48;70.09
54806;BME280;62866;55.776;37.496;2024-03-02T07:55:19;101139.97;;;5.44;69.51
54806;BME280;62866;55.776;37.496;2024-03-02T07:57:45;101142.16;;;5.28;70.08
54806;BME280;62866;55.776;37.496;2024-03-02T08:00:11;101147.13;;;5.32;69.42
54806;BME280;62866;55.776;37.496;2024-03-02T08:02:36;101154.84;;;5.24;69.46
54806;BME280;62866;55.776;37.496;2024-03-02T08:05:02;101147.94;;;5.11;69.47
54806;BME280;62866;55.776;37.496;2024-03-02T08:07:27;101141.22;;;5.07;70.01
54806;BME280;62866;55.776;37.496;2024-03-02T08:09:53;101130.00;;;5.25;69.99
54806;BME280;62866;55.776;37.496;2024-03-02T08:12:18;101142.78;;;5.43;69.52
54806;BME280;62866;55.776;37.496;2024-03-02T08:14:45;101139.22;;;5.53;68.77
54806;BME280;62866;55.776;37.496;2024-03-02T08:17:10;101140.81;;;5.56;68.36
54806;BME280;62866;55.776;37.496;2024-03-02T08:19:37;101139.72;;;5.58;68.44
54806;BME280;62866;55.776;37.496;2024-03-02T08:22:03;101135.25;;;5.59;68.63
54806;BME280;62866;55.776;37.496;2024-03-02T08:24:29;101139.97;;;5.55;69.30
54806;BME280;62866;55.776;37.496;2024-03-02T08:26:54;101135.16;;;5.49;69.59
54806;BME280;62866;55.776;37.496;2024-03-02T08:29:20;101137.41;;;5.76;69.26
54806;BME280;62866;55.776;37.496;2024-03-02T08:31:45;101142.91;;;5.84;68.30
54806;BME280;62866;55.776;37.496;2024-03-02T08:34:10;101137.88;;;5.92;68.69
54806;BME280;62866;55.776;37.496;2024-03-02T08:36:36;101147.13;;;5.98;67.83
54806;BME280;62866;55.776;37.496;2024-03-02T08:39:02;101135.41;;;6.00;67.59
54806;BME280;62866;55.776;37.496;2024-03-02T08:41:28;101141.09;;;5.96;67.75
54806;BME280;62866;55.776;37.496;2024-03-02T08:43:54;101138.81;;;6.02;67.58
54806;BME280;62866;55.776;37.496;2024-03-02T08:46:19;101133.94;;;6.28;67.34
54806;BME280;62866;55.776;37.496;2024-03-02T08:48:45;101138.19;;;6.52;66.20
54806;BME280;62866;55.776;37.496;2024-03-02T08:51:10;101147.59;;;6.76;65.61
54806;BME280;62866;55.776;37.496;2024-03-02T08:53:36;101146.22;;;7.12;64.98
54806;BME280;62866;55.776;37.496;2024-03-02T08:56:03;101140.81;;;7.23;64.47
54806;BME280;62866;55.776;37.496;2024-03-02T08:58:31;101143.59;;;7.62;64.51
54806;BME280;62866;55.776;37.496;2024-03-02T09:00:57;101135.41;;;7.94;63.94
54806;BME280;62866;55.776;37.496;2024-03-02T09:03:22;101141.03;;;8.20;63.68
54806;BME280;62866;55.776;37.496;2024-03-02T09:05:48;101134.56;;;8.22;62.83
54806;BME280;62866;55.776;37.496;2024-03-02T09:08:13;101138.22;;;8.41;63.59
54806;BME280;62866;55.776;37.496;2024-03-02T09:10:38;101135.28;;;8.34;61.68
54806;BME280;62866;55.776;37.496;2024-03-02T09:13:05;101130.78;;;7.86;63.43
54806;BME280;62866;55.776;37.496;2024-03-02T09:15:30;101128.53;;;8.01;63.69
54806;BME280;62866;55.776;37.496;2024-03-02T09:17:56;101100.63;;;7.76;62.56
54806;BME280;62866;55.776;37.496;2024-03-02T09:20:21;101130.44;;;7.70;63.78
54806;BME280;62866;55.776;37.496;2024-03-02T09:22:48;101127.47;;;7.14;63.56
54806;BME280;62866;55.776;37.496;2024-03-02T09:25:14;101135.75;;;7.11;63.93
54806;BME280;62866;55.776;37.496;2024-03-02T09:27:41;101112.72;;;7.00;64.52
54806;BME280;62866;55.776;37.496;2024-03-02T09:30:09;101126.66;;;7.23;63.92
54806;BME280;62866;55.776;37.496;2024-03-02T09:32:37;101119.53;;;7.23;62.37
54806;BME280;62866;55.776;37.496;2024-03-02T09:35:03;101122.91;;;7.26;61.86
54806;BME280;62866;55.776;37.496;2024-03-02T09:37:28;101124.34;;;6.99;61.87
54806;BME280;62866;55.776;37.496;2024-03-02T09:39:54;101123.06;;;6.73;62.45
54806;BME280;62866;55.776;37.496;2024-03-02T09:42:20;101124.81;;;6.63;62.77
54806;BME280;62866;55.776;37.496;2024-03-02T09:44:45;101123.09;;;6.31;63.71
54806;BME280;62866;55.776;37.496;2024-03-02T09:47:12;101114.38;;;6.29;64.09
54806;BME280;62866;55.776;37.496;2024-03-02T09:49:38;101116.28;;;6.18;64.18
54806;BME280;62866;55.776;37.496;2024-03-02T09:52:05;101121.00;;;6.14;64.74
54806;BME280;62866;55.776;37.496;2024-03-02T09:54:32;101119.97;;;6.26;64.23
54806;BME280;62866;55.776;37.496;2024-03-02T09:56:57;101119.41;;;6.43;64.56
54806;BME280;62866;55.776;37.496;2024-03-02T09:59:23;101117.19;;;6.69;63.46
54806;BME280;62866;55.776;37.496;2024-03-02T10:02:02;101116.97;;;6.82;62.63
54806;BME280;62866;55.776;37.496;2024-03-02T10:04:29;101118.44;;;6.96;62.21
54806;BME280;62866;55.776;37.496;2024-03-02T10:07:15;101122.47;;;6.90;61.86
54806;BME280;62866;55.776;37.496;2024-03-02T10:09:44;101125.00;;;6.92;61.81
54806;BME280;62866;55.776;37.496;2024-03-02T10:12:11;101109.59;;;6.85;62.33
54806;BME280;62866;55.776;37.496;2024-03-02T10:14:37;101111.72;;;6.71;62.81
54806;BME280;62866;55.776;37.496;2024-03-02T10:17:13;101114.75;;;6.87;62.91
54806;BME280;62866;55.776;37.496;2024-03-02T10:19:39;101123.38;;;7.00;62.05
54806;BME280;62866;55.776;37.496;2024-03-02T10:22:06;101118.47;;;7.05;61.91
54806;BME280;62866;55.776;37.496;2024-03-02T10:24:40;101102.28;;;6.57;62.22
54806;BME280;62866;55.776;37.496;2024-03-02T10:27:16;101104.81;;;6.38;63.54
54806;BME280;62866;55.776;37.496;2024-03-02T10:29:42;101127.09;;;6.46;63.36
54806;BME280;62866;55.776;37.496;2024-03-02T10:32:09;101125.16;;;6.48;62.81
54806;BME280;62866;55.776;37.496;2024-03-02T10:34:36;101132.03;;;6.30;63.06
54806;BME280;62866;55.776;37.496;2024-03-02T10:37:02;101124.25;;;6.38;63.58
54806;BME280;62866;55.776;37.496;2024-03-02T10:39:28;101134.69;;;6.51;62.73
54806;BME280;62866;55.776;37.496;2024-03-02T10:41:55;101127.88;;;6.37;62.12
54806;BME280;62866;55.776;37.496;2024-03-02T10:44:22;101131.78;;;6.33;62.57
54806;BME280;62866;55.776;37.496;2024-03-02T10:46:49;101118.66;;;6.21;62.54
54806;BME280;62866;55.776;37.496;2024-03-02T10:49:19;101122.16;;;6.21;63.15
54806;BME280;62866;55.776;37.496;2024-03-02T10:51:46;101117.13;;;6.39;63.08
54806;BME280;62866;55.776;37.496;2024-03-02T10:54:11;101135.25;;;6.55;62.36
54806;BME280;62866;55.776;37.496;2024-03-02T10:56:41;101125.50;;;6.34;63.22
54806;BME280;62866;55.776;37.496;2024-03-02T10:59:35;101139.28;;;6.49;63.15
54806;BME280;62866;55.776;37.496;2024-03-02T11:02:03;101141.22;;;6.47;62.61
54806;BME280;62866;55.776;37.496;2024-03-02T11:04:30;101135.16;;;6.35;62.58
54806;BME280;62866;55.776;37.496;2024-03-02T11:07:09;101139.88;;;6.32;62.91
54806;BME280;62866;55.776;37.496;2024-03-02T11:09:38;101135.19;;;6.24;62.99
54806;BME280;62866;55.776;37.496;2024-03-02T11:12:19;101134.09;;;6.27;63.16
54806;BME280;62866;55.776;37.496;2024-03-02T11:14:48;101048.84;;;5.77;63.65
54806;BME280;62866;55.776;37.496;2024-03-02T11:17:17;101131.69;;;6.44;63.06
54806;BME280;62866;55.776;37.496;2024-03-02T11:19:43;101123.13;;;6.20;63.30
54806;BME280;62866;55.776;37.496;2024-03-02T11:22:11;101123.69;;;6.03;64.15
54806;BME280;62866;55.776;37.496;2024-03-02T11:24:37;101122.16;;;6.21;64.45
54806;BME280;62866;55.776;37.496;2024-03-02T11:27:04;101122.63;;;6.47;63.61
54806;BME280;62866;55.776;37.496;2024-03-02T11:29:42;101131.56;;;6.46;63.66
54806;BME280;62866;55.776;37.496;2024-03-02T11:32:15;101131.44;;;6.27;64.21
54806;BME280;62866;55.776;37.496;2024-03-02T11:34:42;101125.41;;;6.25;64.21
54806;BME280;62866;55.776;37.496;2024-03-02T11:37:12;101124.72;;;6.12;64.28
54806;BME280;62866;55.776;37.496;2024-03-02T11:39:39;101120.47;;;6.20;64.59
54806;BME280;62866;55.776;37.496;2024-03-02T11:42:08;101117.72;;;6.42;63.74
54806;BME280;62866;55.776;37.496;2024-03-02T11:44:38;101123.28;;;6.60;63.41
54806;BME280;62866;55.776;37.496;2024-03-02T11:47:08;101117.44;;;6.66;62.61
54806;BME280;62866;55.776;37.496;2024-03-02T11:49:49;101107.59;;;6.57;62.41
54806;BME280;62866;55.776;37.496;2024-03-02T11:52:17;101119.19;;;6.56;62.75
54806;BME280;62866;55.776;37.496;2024-03-02T11:54:47;101109.00;;;6.61;62.74
54806;BME280;62866;55.776;37.496;2024-03-02T11:57:17;101101.81;;;6.73;62.69
54806;BME280;62866;55.776;37.496;2024-03-02T11:59:43;101098.84;;;6.66;62.16
54806;BME280;62866;55.776;37.496;2024-03-02T12:02:16;101103.13;;;6.58;62.23
54806;BME280;62866;55.776;37.496;2024-03-02T12:04:43;101107.66;;;6.46;62.67
54806;BME280;62866;55.776;37.496;2024-03-02T12:07:10;101095.50;;;6.43;62.77
54806;BME280;62866;55.776;37.496;2024-03-02T12:09:36;101104.69;;;6.39;62.66
54806;BME280;62866;55.776;37.496;2024-03-02T12:12:06;101099.94;;;6.22;63.21
54806;BME280;62866;55.776;37.496;2024-03-02T12:14:32;101089.25;;;6.13;63.38
54806;BME280;62866;55.776;37.496;2024-03-02T12:16:58;101098.16;;;5.91;63.82
54806;BME280;62866;55.776;37.496;2024-03-02T12:19:25;101107.16;;;5.67;64.57
54806;BME280;62866;55.776;37.496;2024-03-02T12:21:52;101096.66;;;5.55;65.05
54806;BME280;62866;55.776;37.496;2024-03-02T12:24:18;101102.91;;;5.76;65.01
54806;BME280;62866;55.776;37.496;2024-03-02T12:26:44;101100.56;;;5.83;64.02
54806;BME280;62866;55.776;37.496;2024-03-02T12:29:10;101104.81;;;5.85;64.51
54806;BME280;62866;55.776;37.496;2024-03-02T12:31:35;101109.38;;;5.83;64.27
54806;BME280;62866;55.776;37.496;2024-03-02T12:34:03;101099.41;;;5.64;64.53
54806;BME280;62866;55.776;37.496;2024-03-02T12:36:29;101107.88;;;5.58;64.25
54806;BME280;62866;55.776;37.496;2024-03-02T12:38:54;101098.81;;;5.61;64.52
54806;BME280;62866;55.776;37.496;2024-03-02T12:41:20;101108.50;;;5.51;64.34
54806;BME280;62866;55.776;37.496;2024-03-02T12:43:46;101104.56;;;5.34;64.84
54806;BME280;62866;55.776;37.496;2024-03-02T12:46:12;101108.69;;;5.27;64.87
54806;BME280;62866;55.776;37.496;2024-03-02T12:48:37;101111.44;;;5.25;65.21
54806;BME280;62866;55.776;37.496;2024-03-02T12:51:06;101110.38;;;5.17;65.00